Navarino, Wisconsin
Current Conditions -  °F | °C
As of 4:15 AM on Thursday 29 Jan 2015 (Local Time) from KEZS Reporting Station
Overcast Overcast  
Wind Chill: 26°   Ceiling: 1300
Heat Index: 31°   Visibility: 7mi
Dew Point: 26°   Wind: 5mph
Humidity: 80%   Direction: 290°WNW
Pressure: 29.78"   Gusts: NA
Location:  44.7353°N, 88.4379°W
Report Text: KEZS 291015Z AUTO 29004KT 7SM OVC013 M01/M04 A2978 RMK AO2 T10061036
Loading
Personal Weather Stations






























Interactive Weather Map New forecast layout! Learn more

10-Day Weather Forecast

Advertisements
Track Severe Weather on mobile